sensor_id;sensor_type;location;lat;lon;timestamp;P1;durP1;ratioP1;P2;durP2;ratioP2
71253;SDS011;59019;47.638;18.966;2022-12-18T00:04:01;51.33;;;15.45;;
71253;SDS011;59019;47.638;18.966;2022-12-18T00:06:48;48.42;;;15.77;;
71253;SDS011;59019;47.638;18.966;2022-12-18T00:09:34;51.70;;;17.38;;
71253;SDS011;59019;47.638;18.966;2022-12-18T00:12:19;47.13;;;13.80;;
71253;SDS011;59019;47.638;18.966;2022-12-18T00:15:05;44.53;;;14.70;;
71253;SDS011;59019;47.638;18.966;2022-12-18T00:17:51;48.78;;;15.75;;
71253;SDS011;59019;47.638;18.966;2022-12-18T00:20:37;45.63;;;16.25;;
71253;SDS011;59019;47.638;18.966;2022-12-18T00:23:23;50.42;;;14.85;;
71253;SDS011;59019;47.638;18.966;2022-12-18T00:26:13;45.27;;;16.03;;
71253;SDS011;59019;47.638;18.966;2022-12-18T00:29:03;58.20;;;17.13;;
71253;SDS011;59019;47.638;18.966;2022-12-18T00:31:51;60.13;;;19.00;;
71253;SDS011;59019;47.638;18.966;2022-12-18T00:34:36;46.22;;;16.30;;
71253;SDS011;59019;47.638;18.966;2022-12-18T00:37:22;51.72;;;17.45;;
71253;SDS011;59019;47.638;18.966;2022-12-18T00:40:07;51.30;;;17.70;;
71253;SDS011;59019;47.638;18.966;2022-12-18T00:42:54;46.42;;;15.68;;
71253;SDS011;59019;47.638;18.966;2022-12-18T00:45:42;51.35;;;15.23;;
71253;SDS011;59019;47.638;18.966;2022-12-18T00:48:28;55.58;;;16.70;;
71253;SDS011;59019;47.638;18.966;2022-12-18T00:51:13;42.78;;;14.02;;
71253;SDS011;59019;47.638;18.966;2022-12-18T00:53:59;47.87;;;15.00;;
71253;SDS011;59019;47.638;18.966;2022-12-18T00:56:44;45.78;;;13.90;;
71253;SDS011;59019;47.638;18.966;2022-12-18T00:59:30;46.17;;;15.27;;
71253;SDS011;59019;47.638;18.966;2022-12-18T01:02:16;43.47;;;15.27;;
71253;SDS011;59019;47.638;18.966;2022-12-18T01:05:01;50.77;;;15.47;;
71253;SDS011;59019;47.638;18.966;2022-12-18T01:07:47;39.17;;;14.38;;
71253;SDS011;59019;47.638;18.966;2022-12-18T01:10:32;47.25;;;16.02;;
71253;SDS011;59019;47.638;18.966;2022-12-18T01:13:18;49.92;;;15.85;;
71253;SDS011;59019;47.638;18.966;2022-12-18T01:16:03;53.33;;;17.85;;
71253;SDS011;59019;47.638;18.966;2022-12-18T01:18:53;49.13;;;14.97;;
71253;SDS011;59019;47.638;18.966;2022-12-18T01:21:39;62.22;;;19.40;;
71253;SDS011;59019;47.638;18.966;2022-12-18T01:24:25;48.90;;;15.98;;
71253;SDS011;59019;47.638;18.966;2022-12-18T01:27:11;44.95;;;15.10;;
71253;SDS011;59019;47.638;18.966;2022-12-18T01:29:56;45.80;;;15.65;;
71253;SDS011;59019;47.638;18.966;2022-12-18T01:32:41;49.07;;;14.80;;
71253;SDS011;59019;47.638;18.966;2022-12-18T01:35:27;46.85;;;15.27;;
71253;SDS011;59019;47.638;18.966;2022-12-18T01:38:12;50.40;;;15.40;;
71253;SDS011;59019;47.638;18.966;2022-12-18T01:40:58;44.22;;;14.40;;
71253;SDS011;59019;47.638;18.966;2022-12-18T01:43:49;44.20;;;15.30;;
71253;SDS011;59019;47.638;18.966;2022-12-18T01:46:16;44.07;;;14.30;;
71253;SDS011;59019;47.638;18.966;2022-12-18T01:48:43;41.45;;;14.27;;
71253;SDS011;59019;47.638;18.966;2022-12-18T01:51:11;49.42;;;16.95;;
71253;SDS011;59019;47.638;18.966;2022-12-18T01:53:39;47.20;;;15.50;;
71253;SDS011;59019;47.638;18.966;2022-12-18T01:56:07;42.83;;;15.70;;
71253;SDS011;59019;47.638;18.966;2022-12-18T01:58:43;42.65;;;14.77;;
71253;SDS011;59019;47.638;18.966;2022-12-18T02:01:11;45.72;;;13.80;;
71253;SDS011;59019;47.638;18.966;2022-12-18T02:03:42;45.13;;;15.23;;
71253;SDS011;59019;47.638;18.966;2022-12-18T02:06:13;44.58;;;14.30;;
71253;SDS011;59019;47.638;18.966;2022-12-18T02:09:20;43.87;;;15.53;;
71253;SDS011;59019;47.638;18.966;2022-12-18T02:11:55;44.67;;;15.05;;
71253;SDS011;59019;47.638;18.966;2022-12-18T02:14:38;46.00;;;15.23;;
71253;SDS011;59019;47.638;18.966;2022-12-18T02:28:02;47.42;;;14.23;;
71253;SDS011;59019;47.638;18.966;2022-12-18T02:30:33;43.80;;;14.98;;
71253;SDS011;59019;47.638;18.966;2022-12-18T02:33:01;43.73;;;15.50;;
71253;SDS011;59019;47.638;18.966;2022-12-18T02:35:30;45.85;;;14.32;;
71253;SDS011;59019;47.638;18.966;2022-12-18T02:37:57;46.13;;;15.88;;
71253;SDS011;59019;47.638;18.966;2022-12-18T02:40:24;46.28;;;14.82;;
71253;SDS011;59019;47.638;18.966;2022-12-18T02:42:53;40.05;;;13.32;;
71253;SDS011;59019;47.638;18.966;2022-12-18T02:45:20;46.17;;;14.20;;
71253;SDS011;59019;47.638;18.966;2022-12-18T02:48:07;44.00;;;14.93;;
71253;SDS011;59019;47.638;18.966;2022-12-18T02:50:59;48.20;;;15.60;;
71253;SDS011;59019;47.638;18.966;2022-12-18T02:53:50;44.58;;;15.13;;
71253;SDS011;59019;47.638;18.966;2022-12-18T02:56:50;53.80;;;17.27;;
71253;SDS011;59019;47.638;18.966;2022-12-18T02:59:41;47.67;;;16.20;;
71253;SDS011;59019;47.638;18.966;2022-12-18T03:05:54;43.63;;;15.93;;
71253;SDS011;59019;47.638;18.966;2022-12-18T03:08:46;57.75;;;18.25;;
71253;SDS011;59019;47.638;18.966;2022-12-18T03:11:36;180.83;;;54.73;;
71253;SDS011;59019;47.638;18.966;2022-12-18T03:14:45;111.63;;;40.90;;
71253;SDS011;59019;47.638;18.966;2022-12-18T03:17:52;105.97;;;48.83;;
71253;SDS011;59019;47.638;18.966;2022-12-18T03:20:44;63.22;;;28.10;;
71253;SDS011;59019;47.638;18.966;2022-12-18T03:23:33;55.08;;;23.42;;
71253;SDS011;59019;47.638;18.966;2022-12-18T03:26:24;42.73;;;18.47;;
71253;SDS011;59019;47.638;18.966;2022-12-18T03:29:17;51.50;;;18.30;;
71253;SDS011;59019;47.638;18.966;2022-12-18T03:32:11;43.00;;;16.00;;
71253;SDS011;59019;47.638;18.966;2022-12-18T03:35:04;45.58;;;15.05;;
71253;SDS011;59019;47.638;18.966;2022-12-18T03:37:51;43.13;;;15.68;;
71253;SDS011;59019;47.638;18.966;2022-12-18T03:47:13;39.90;;;16.00;;
71253;SDS011;59019;47.638;18.966;2022-12-18T03:50:32;42.30;;;16.15;;
71253;SDS011;59019;47.638;18.966;2022-12-18T03:56:18;48.23;;;15.40;;
71253;SDS011;59019;47.638;18.966;2022-12-18T03:59:08;54.72;;;23.58;;
71253;SDS011;59019;47.638;18.966;2022-12-18T04:01:57;56.17;;;19.20;;
71253;SDS011;59019;47.638;18.966;2022-12-18T04:04:45;49.03;;;16.08;;
71253;SDS011;59019;47.638;18.966;2022-12-18T04:07:16;51.88;;;18.33;;
71253;SDS011;59019;47.638;18.966;2022-12-18T04:09:43;47.67;;;19.90;;
71253;SDS011;59019;47.638;18.966;2022-12-18T04:12:11;56.63;;;20.30;;
71253;SDS011;59019;47.638;18.966;2022-12-18T04:14:36;52.58;;;19.98;;
71253;SDS011;59019;47.638;18.966;2022-12-18T04:17:02;47.25;;;17.25;;
71253;SDS011;59019;47.638;18.966;2022-12-18T04:19:28;65.82;;;22.83;;
71253;SDS011;59019;47.638;18.966;2022-12-18T04:21:54;57.57;;;23.30;;
71253;SDS011;59019;47.638;18.966;2022-12-18T04:24:19;55.50;;;20.75;;
71253;SDS011;59019;47.638;18.966;2022-12-18T04:26:45;43.33;;;17.53;;
71253;SDS011;59019;47.638;18.966;2022-12-18T04:29:11;48.35;;;15.50;;
71253;SDS011;59019;47.638;18.966;2022-12-18T04:31:37;39.67;;;14.70;;
71253;SDS011;59019;47.638;18.966;2022-12-18T04:34:02;43.22;;;14.98;;
71253;SDS011;59019;47.638;18.966;2022-12-18T04:36:28;42.80;;;15.43;;
71253;SDS011;59019;47.638;18.966;2022-12-18T04:38:54;48.50;;;16.50;;
71253;SDS011;59019;47.638;18.966;2022-12-18T04:41:20;49.00;;;20.07;;
71253;SDS011;59019;47.638;18.966;2022-12-18T04:43:46;54.33;;;21.25;;
71253;SDS011;59019;47.638;18.966;2022-12-18T04:46:11;53.10;;;20.87;;
71253;SDS011;59019;47.638;18.966;2022-12-18T04:48:37;52.35;;;20.20;;
71253;SDS011;59019;47.638;18.966;2022-12-18T04:51:04;46.88;;;15.98;;
71253;SDS011;59019;47.638;18.966;2022-12-18T04:53:31;45.38;;;17.75;;
71253;SDS011;59019;47.638;18.966;2022-12-18T04:56:07;44.33;;;15.70;;
71253;SDS011;59019;47.638;18.966;2022-12-18T04:58:36;43.60;;;14.20;;
71253;SDS011;59019;47.638;18.966;2022-12-18T05:01:03;52.00;;;20.67;;
71253;SDS011;59019;47.638;18.966;2022-12-18T05:03:29;45.92;;;16.65;;
71253;SDS011;59019;47.638;18.966;2022-12-18T05:05:55;63.33;;;24.02;;
71253;SDS011;59019;47.638;18.966;2022-12-18T05:08:40;48.38;;;18.13;;
71253;SDS011;59019;47.638;18.966;2022-12-18T05:11:26;57.37;;;19.70;;
71253;SDS011;59019;47.638;18.966;2022-12-18T05:13:51;68.65;;;23.77;;
71253;SDS011;59019;47.638;18.966;2022-12-18T05:16:17;63.63;;;25.03;;
71253;SDS011;59019;47.638;18.966;2022-12-18T05:18:42;43.57;;;16.50;;
71253;SDS011;59019;47.638;18.966;2022-12-18T05:21:08;48.40;;;15.65;;
71253;SDS011;59019;47.638;18.966;2022-12-18T05:23:34;47.73;;;16.73;;
71253;SDS011;59019;47.638;18.966;2022-12-18T05:26:00;48.63;;;15.45;;
71253;SDS011;59019;47.638;18.966;2022-12-18T05:28:28;53.75;;;20.13;;
71253;SDS011;59019;47.638;18.966;2022-12-18T05:30:56;47.70;;;16.23;;
71253;SDS011;59019;47.638;18.966;2022-12-18T05:33:25;48.17;;;17.10;;
71253;SDS011;59019;47.638;18.966;2022-12-18T05:35:52;49.17;;;16.15;;
71253;SDS011;59019;47.638;18.966;2022-12-18T05:38:24;47.67;;;15.60;;
71253;SDS011;59019;47.638;18.966;2022-12-18T05:40:51;48.13;;;17.17;;
71253;SDS011;59019;47.638;18.966;2022-12-18T05:43:18;47.13;;;15.40;;
71253;SDS011;59019;47.638;18.966;2022-12-18T05:45:44;45.95;;;16.52;;
71253;SDS011;59019;47.638;18.966;2022-12-18T05:48:10;46.38;;;14.95;;
71253;SDS011;59019;47.638;18.966;2022-12-18T05:50:38;44.67;;;15.63;;
71253;SDS011;59019;47.638;18.966;2022-12-18T05:53:06;43.43;;;16.43;;
71253;SDS011;59019;47.638;18.966;2022-12-18T05:55:53;43.50;;;17.33;;
71253;SDS011;59019;47.638;18.966;2022-12-18T05:58:38;42.13;;;14.82;;
71253;SDS011;59019;47.638;18.966;2022-12-18T06:01:25;43.50;;;16.70;;
71253;SDS011;59019;47.638;18.966;2022-12-18T06:04:11;46.22;;;14.88;;
71253;SDS011;59019;47.638;18.966;2022-12-18T06:06:57;41.63;;;13.82;;
71253;SDS011;59019;47.638;18.966;2022-12-18T06:09:42;40.00;;;13.48;;
71253;SDS011;59019;47.638;18.966;2022-12-18T06:12:28;42.45;;;14.07;;
71253;SDS011;59019;47.638;18.966;2022-12-18T06:15:14;77.10;;;28.70;;
71253;SDS011;59019;47.638;18.966;2022-12-18T06:18:00;39.90;;;14.75;;
71253;SDS011;59019;47.638;18.966;2022-12-18T06:20:53;46.30;;;15.65;;
71253;SDS011;59019;47.638;18.966;2022-12-18T06:23:40;54.55;;;18.60;;
71253;SDS011;59019;47.638;18.966;2022-12-18T06:26:26;53.25;;;17.23;;
71253;SDS011;59019;47.638;18.966;2022-12-18T06:29:12;65.73;;;21.60;;
71253;SDS011;59019;47.638;18.966;2022-12-18T06:31:57;48.83;;;19.55;;
71253;SDS011;59019;47.638;18.966;2022-12-18T06:34:43;52.30;;;17.88;;
71253;SDS011;59019;47.638;18.966;2022-12-18T06:37:30;46.50;;;17.58;;
71253;SDS011;59019;47.638;18.966;2022-12-18T06:40:16;54.78;;;20.67;;
71253;SDS011;59019;47.638;18.966;2022-12-18T06:43:02;53.80;;;20.52;;
71253;SDS011;59019;47.638;18.966;2022-12-18T06:45:47;58.95;;;20.88;;
71253;SDS011;59019;47.638;18.966;2022-12-18T06:48:37;47.72;;;20.13;;
71253;SDS011;59019;47.638;18.966;2022-12-18T06:51:23;59.85;;;22.52;;
71253;SDS011;59019;47.638;18.966;2022-12-18T06:54:09;58.27;;;22.20;;
71253;SDS011;59019;47.638;18.966;2022-12-18T06:56:54;65.80;;;26.38;;
71253;SDS011;59019;47.638;18.966;2022-12-18T06:59:40;71.25;;;25.95;;
71253;SDS011;59019;47.638;18.966;2022-12-18T07:02:25;66.28;;;24.23;;
71253;SDS011;59019;47.638;18.966;2022-12-18T07:05:11;63.00;;;25.60;;
71253;SDS011;59019;47.638;18.966;2022-12-18T07:07:57;70.43;;;27.38;;
71253;SDS011;59019;47.638;18.966;2022-12-18T07:10:43;69.85;;;26.35;;
71253;SDS011;59019;47.638;18.966;2022-12-18T07:13:28;81.53;;;34.22;;
71253;SDS011;59019;47.638;18.966;2022-12-18T07:16:15;90.73;;;36.80;;
71253;SDS011;59019;47.638;18.966;2022-12-18T07:19:02;80.15;;;31.75;;
71253;SDS011;59019;47.638;18.966;2022-12-18T07:21:47;73.68;;;28.38;;
71253;SDS011;59019;47.638;18.966;2022-12-18T07:24:35;61.00;;;25.77;;
71253;SDS011;59019;47.638;18.966;2022-12-18T07:27:21;63.30;;;24.95;;
71253;SDS011;59019;47.638;18.966;2022-12-18T07:30:07;57.23;;;22.33;;
71253;SDS011;59019;47.638;18.966;2022-12-18T07:32:54;51.45;;;21.73;;
71253;SDS011;59019;47.638;18.966;2022-12-18T07:35:39;52.83;;;19.33;;
71253;SDS011;59019;47.638;18.966;2022-12-18T07:38:25;49.35;;;17.98;;
71253;SDS011;59019;47.638;18.966;2022-12-18T07:41:11;38.60;;;14.67;;
71253;SDS011;59019;47.638;18.966;2022-12-18T07:43:57;48.25;;;17.08;;
71253;SDS011;59019;47.638;18.966;2022-12-18T07:46:43;81.13;;;30.50;;
71253;SDS011;59019;47.638;18.966;2022-12-18T07:49:28;71.68;;;25.33;;
71253;SDS011;59019;47.638;18.966;2022-12-18T07:52:14;61.03;;;22.30;;
71253;SDS011;59019;47.638;18.966;2022-12-18T07:54:59;51.35;;;18.55;;
71253;SDS011;59019;47.638;18.966;2022-12-18T07:57:45;43.42;;;16.08;;
71253;SDS011;59019;47.638;18.966;2022-12-18T08:00:30;48.63;;;15.38;;
71253;SDS011;59019;47.638;18.966;2022-12-18T08:03:16;42.90;;;14.30;;
71253;SDS011;59019;47.638;18.966;2022-12-18T08:06:02;41.72;;;14.63;;
71253;SDS011;59019;47.638;18.966;2022-12-18T08:08:53;45.28;;;15.00;;
71253;SDS011;59019;47.638;18.966;2022-12-18T08:11:39;42.30;;;16.00;;
71253;SDS011;59019;47.638;18.966;2022-12-18T08:14:24;45.53;;;15.90;;
71253;SDS011;59019;47.638;18.966;2022-12-18T08:17:10;51.08;;;17.38;;
71253;SDS011;59019;47.638;18.966;2022-12-18T08:19:55;45.00;;;15.27;;
71253;SDS011;59019;47.638;18.966;2022-12-18T08:22:41;45.53;;;15.48;;
71253;SDS011;59019;47.638;18.966;2022-12-18T08:25:27;45.88;;;15.57;;
71253;SDS011;59019;47.638;18.966;2022-12-18T08:28:12;41.28;;;14.48;;
71253;SDS011;59019;47.638;18.966;2022-12-18T08:30:58;46.13;;;14.52;;
71253;SDS011;59019;47.638;18.966;2022-12-18T08:33:44;41.10;;;14.85;;
71253;SDS011;59019;47.638;18.966;2022-12-18T08:36:28;45.58;;;15.07;;
71253;SDS011;59019;47.638;18.966;2022-12-18T08:38:54;44.03;;;15.07;;
71253;SDS011;59019;47.638;18.966;2022-12-18T08:41:21;46.08;;;15.80;;
71253;SDS011;59019;47.638;18.966;2022-12-18T08:43:47;48.13;;;15.77;;
71253;SDS011;59019;47.638;18.966;2022-12-18T08:46:35;45.83;;;16.00;;
71253;SDS011;59019;47.638;18.966;2022-12-18T08:49:05;48.88;;;16.13;;
71253;SDS011;59019;47.638;18.966;2022-12-18T08:51:32;44.53;;;15.67;;
71253;SDS011;59019;47.638;18.966;2022-12-18T08:53:58;53.42;;;19.35;;
71253;SDS011;59019;47.638;18.966;2022-12-18T08:56:23;44.40;;;14.90;;
71253;SDS011;59019;47.638;18.966;2022-12-18T08:58:51;45.50;;;15.40;;
71253;SDS011;59019;47.638;18.966;2022-12-18T09:01:17;49.20;;;17.20;;
71253;SDS011;59019;47.638;18.966;2022-12-18T09:03:42;46.43;;;16.70;;
71253;SDS011;59019;47.638;18.966;2022-12-18T09:06:08;47.67;;;16.27;;
71253;SDS011;59019;47.638;18.966;2022-12-18T09:08:34;47.60;;;15.83;;
71253;SDS011;59019;47.638;18.966;2022-12-18T09:11:00;46.10;;;15.73;;
71253;SDS011;59019;47.638;18.966;2022-12-18T09:13:25;48.60;;;17.40;;
71253;SDS011;59019;47.638;18.966;2022-12-18T09:15:52;56.50;;;20.02;;
71253;SDS011;59019;47.638;18.966;2022-12-18T09:18:22;53.92;;;18.10;;
71253;SDS011;59019;47.638;18.966;2022-12-18T09:20:49;49.13;;;16.45;;
71253;SDS011;59019;47.638;18.966;2022-12-18T09:23:18;48.23;;;16.30;;
71253;SDS011;59019;47.638;18.966;2022-12-18T09:25:46;50.55;;;17.42;;
71253;SDS011;59019;47.638;18.966;2022-12-18T09:28:13;49.53;;;16.80;;
71253;SDS011;59019;47.638;18.966;2022-12-18T09:30:41;44.70;;;15.57;;
71253;SDS011;59019;47.638;18.966;2022-12-18T09:33:12;47.70;;;18.77;;
71253;SDS011;59019;47.638;18.966;2022-12-18T09:35:38;44.70;;;16.90;;
71253;SDS011;59019;47.638;18.966;2022-12-18T09:38:04;49.35;;;16.35;;
71253;SDS011;59019;47.638;18.966;2022-12-18T09:40:33;46.83;;;15.67;;
71253;SDS011;59019;47.638;18.966;2022-12-18T09:43:03;45.05;;;15.38;;
71253;SDS011;59019;47.638;18.966;2022-12-18T09:45:31;40.65;;;14.48;;
71253;SDS011;59019;47.638;18.966;2022-12-18T09:48:05;45.78;;;15.25;;
71253;SDS011;59019;47.638;18.966;2022-12-18T09:51:08;43.33;;;15.23;;
71253;SDS011;59019;47.638;18.966;2022-12-18T09:53:44;40.03;;;14.70;;
71253;SDS011;59019;47.638;18.966;2022-12-18T09:56:34;42.67;;;13.98;;
71253;SDS011;59019;47.638;18.966;2022-12-18T09:59:02;44.30;;;14.73;;
71253;SDS011;59019;47.638;18.966;2022-12-18T10:01:29;42.97;;;13.60;;
71253;SDS011;59019;47.638;18.966;2022-12-18T10:03:56;38.67;;;13.30;;
71253;SDS011;59019;47.638;18.966;2022-12-18T10:06:25;40.67;;;13.17;;
71253;SDS011;59019;47.638;18.966;2022-12-18T10:19:55;32.40;;;12.10;;
71253;SDS011;59019;47.638;18.966;2022-12-18T10:27:45;33.42;;;11.13;;
71253;SDS011;59019;47.638;18.966;2022-12-18T10:30:20;30.50;;;9.88;;
71253;SDS011;59019;47.638;18.966;2022-12-18T10:32:47;33.30;;;11.48;;
71253;SDS011;59019;47.638;18.966;2022-12-18T10:35:25;32.47;;;11.30;;
71253;SDS011;59019;47.638;18.966;2022-12-18T10:38:01;28.92;;;10.70;;
71253;SDS011;59019;47.638;18.966;2022-12-18T10:43:37;32.15;;;11.18;;
71253;SDS011;59019;47.638;18.966;2022-12-18T10:48:34;46.20;;;18.58;;
71253;SDS011;59019;47.638;18.966;2022-12-18T10:51:05;35.90;;;15.32;;
71253;SDS011;59019;47.638;18.966;2022-12-18T10:53:32;31.40;;;12.75;;
71253;SDS011;59019;47.638;18.966;2022-12-18T10:56:00;28.90;;;10.77;;
71253;SDS011;59019;47.638;18.966;2022-12-18T10:58:35;46.40;;;15.17;;
71253;SDS011;59019;47.638;18.966;2022-12-18T11:08:41;60.90;;;34.85;;
71253;SDS011;59019;47.638;18.966;2022-12-18T11:11:41;434.70;;;313.47;;
71253;SDS011;59019;47.638;18.966;2022-12-18T11:16:30;189.88;;;95.57;;
71253;SDS011;59019;47.638;18.966;2022-12-18T11:20:01;68.95;;;26.73;;
71253;SDS011;59019;47.638;18.966;2022-12-18T11:22:03;85.97;;;42.55;;
71253;SDS011;59019;47.638;18.966;2022-12-18T11:24:49;45.77;;;23.87;;
71253;SDS011;59019;47.638;18.966;2022-12-18T11:27:18;36.85;;;14.05;;
71253;SDS011;59019;47.638;18.966;2022-12-18T11:29:46;28.98;;;13.10;;
71253;SDS011;59019;47.638;18.966;2022-12-18T11:34:48;32.35;;;15.20;;
71253;SDS011;59019;47.638;18.966;2022-12-18T11:37:17;36.30;;;17.58;;
71253;SDS011;59019;47.638;18.966;2022-12-18T11:42:41;27.87;;;14.87;;
71253;SDS011;59019;47.638;18.966;2022-12-18T11:45:20;35.17;;;18.55;;
71253;SDS011;59019;47.638;18.966;2022-12-18T11:50:28;30.33;;;10.93;;
71253;SDS011;59019;47.638;18.966;2022-12-18T11:52:58;29.20;;;12.30;;
71253;SDS011;59019;47.638;18.966;2022-12-18T12:01:13;26.02;;;12.02;;
71253;SDS011;59019;47.638;18.966;2022-12-18T12:07:05;29.25;;;10.15;;
71253;SDS011;59019;47.638;18.966;2022-12-18T12:20:42;33.03;;;15.02;;
71253;SDS011;59019;47.638;18.966;2022-12-18T12:26:11;25.85;;;9.90;;
71253;SDS011;59019;47.638;18.966;2022-12-18T12:34:44;37.05;;;14.73;;
71253;SDS011;59019;47.638;18.966;2022-12-18T12:37:25;26.70;;;10.30;;
71253;SDS011;59019;47.638;18.966;2022-12-18T12:39:58;23.95;;;9.35;;
71253;SDS011;59019;47.638;18.966;2022-12-18T12:42:31;23.33;;;8.15;;
71253;SDS011;59019;47.638;18.966;2022-12-18T12:45:27;22.85;;;9.45;;
71253;SDS011;59019;47.638;18.966;2022-12-18T12:48:00;23.90;;;9.35;;
71253;SDS011;59019;47.638;18.966;2022-12-18T12:50:29;28.10;;;9.33;;
71253;SDS011;59019;47.638;18.966;2022-12-18T12:52:59;42.75;;;15.65;;
71253;SDS011;59019;47.638;18.966;2022-12-18T12:55:31;32.53;;;11.68;;
71253;SDS011;59019;47.638;18.966;2022-12-18T12:58:07;25.63;;;9.77;;
71253;SDS011;59019;47.638;18.966;2022-12-18T13:00:47;21.58;;;8.60;;
71253;SDS011;59019;47.638;18.966;2022-12-18T13:03:28;410.63;;;156.40;;
71253;SDS011;59019;47.638;18.966;2022-12-18T13:06:19;734.40;;;326.50;;
71253;SDS011;59019;47.638;18.966;2022-12-18T13:08:58;324.70;;;135.68;;
71253;SDS011;59019;47.638;18.966;2022-12-18T13:11:29;77.05;;;33.83;;
71253;SDS011;59019;47.638;18.966;2022-12-18T13:14:28;35.58;;;17.75;;
71253;SDS011;59019;47.638;18.966;2022-12-18T13:19:56;26.10;;;12.95;;
71253;SDS011;59019;47.638;18.966;2022-12-18T13:22:35;31.00;;;11.57;;
71253;SDS011;59019;47.638;18.966;2022-12-18T13:25:03;25.90;;;10.80;;
71253;SDS011;59019;47.638;18.966;2022-12-18T13:27:57;25.02;;;10.50;;
71253;SDS011;59019;47.638;18.966;2022-12-18T13:35:39;28.65;;;11.00;;
71253;SDS011;59019;47.638;18.966;2022-12-18T13:38:20;33.17;;;12.27;;
71253;SDS011;59019;47.638;18.966;2022-12-18T13:43:55;37.97;;;16.40;;
71253;SDS011;59019;47.638;18.966;2022-12-18T13:46:45;36.65;;;17.10;;
71253;SDS011;59019;47.638;18.966;2022-12-18T13:51:38;35.23;;;14.50;;
71253;SDS011;59019;47.638;18.966;2022-12-18T13:56:47;47.55;;;25.40;;
71253;SDS011;59019;47.638;18.966;2022-12-18T14:16:57;134.68;;;73.80;;
71253;SDS011;59019;47.638;18.966;2022-12-18T14:19:24;133.75;;;62.20;;
71253;SDS011;59019;47.638;18.966;2022-12-18T14:21:50;80.88;;;38.75;;
71253;SDS011;59019;47.638;18.966;2022-12-18T14:24:17;122.20;;;62.97;;
71253;SDS011;59019;47.638;18.966;2022-12-18T14:26:46;83.85;;;42.40;;
71253;SDS011;59019;47.638;18.966;2022-12-18T14:29:25;59.72;;;31.30;;
71253;SDS011;59019;47.638;18.966;2022-12-18T14:32:05;78.30;;;42.83;;
71253;SDS011;59019;47.638;18.966;2022-12-18T14:34:53;79.38;;;40.55;;
71253;SDS011;59019;47.638;18.966;2022-12-18T14:37:21;58.10;;;28.40;;
71253;SDS011;59019;47.638;18.966;2022-12-18T14:39:57;51.28;;;24.27;;
71253;SDS011;59019;47.638;18.966;2022-12-18T14:42:26;52.90;;;22.08;;
71253;SDS011;59019;47.638;18.966;2022-12-18T14:47:56;56.03;;;26.23;;
71253;SDS011;59019;47.638;18.966;2022-12-18T14:50:22;53.30;;;25.92;;
71253;SDS011;59019;47.638;18.966;2022-12-18T14:52:47;49.23;;;18.97;;
71253;SDS011;59019;47.638;18.966;2022-12-18T14:55:16;49.03;;;18.63;;
71253;SDS011;59019;47.638;18.966;2022-12-18T14:57:43;619.73;;;223.67;;
71253;SDS011;59019;47.638;18.966;2022-12-18T15:00:16;560.97;;;203.13;;
71253;SDS011;59019;47.638;18.966;2022-12-18T15:02:44;591.90;;;230.07;;
71253;SDS011;59019;47.638;18.966;2022-12-18T15:05:17;807.78;;;343.65;;
71253;SDS011;59019;47.638;18.966;2022-12-18T15:08:01;747.08;;;301.45;;
71253;SDS011;59019;47.638;18.966;2022-12-18T15:10:31;631.13;;;239.93;;
71253;SDS011;59019;47.638;18.966;2022-12-18T15:20:32;92.20;;;32.03;;
71253;SDS011;59019;47.638;18.966;2022-12-18T15:23:28;58.27;;;19.63;;
71253;SDS011;59019;47.638;18.966;2022-12-18T15:26:00;48.05;;;16.45;;
71253;SDS011;59019;47.638;18.966;2022-12-18T15:33:38;33.25;;;11.82;;
71253;SDS011;59019;47.638;18.966;2022-12-18T15:36:24;38.53;;;12.93;;
71253;SDS011;59019;47.638;18.966;2022-12-18T15:38:56;37.13;;;12.55;;
71253;SDS011;59019;47.638;18.966;2022-12-18T15:41:25;33.20;;;12.93;;
71253;SDS011;59019;47.638;18.966;2022-12-18T15:43:51;41.92;;;16.05;;
71253;SDS011;59019;47.638;18.966;2022-12-18T15:46:24;52.35;;;21.73;;
71253;SDS011;59019;47.638;18.966;2022-12-18T15:48:52;49.90;;;20.53;;
71253;SDS011;59019;47.638;18.966;2022-12-18T15:53:58;58.10;;;24.42;;
71253;SDS011;59019;47.638;18.966;2022-12-18T15:56:26;43.97;;;17.67;;
71253;SDS011;59019;47.638;18.966;2022-12-18T15:59:11;46.35;;;16.58;;
71253;SDS011;59019;47.638;18.966;2022-12-18T16:01:38;47.83;;;19.67;;
71253;SDS011;59019;47.638;18.966;2022-12-18T16:04:04;61.55;;;31.42;;
71253;SDS011;59019;47.638;18.966;2022-12-18T16:06:30;60.45;;;21.95;;
71253;SDS011;59019;47.638;18.966;2022-12-18T16:08:56;58.50;;;24.53;;
71253;SDS011;59019;47.638;18.966;2022-12-18T16:11:22;61.00;;;22.57;;
71253;SDS011;59019;47.638;18.966;2022-12-18T16:14:17;53.53;;;23.15;;
71253;SDS011;59019;47.638;18.966;2022-12-18T16:16:44;51.28;;;18.88;;
71253;SDS011;59019;47.638;18.966;2022-12-18T16:19:10;55.90;;;20.90;;
71253;SDS011;59019;47.638;18.966;2022-12-18T16:21:36;141.90;;;41.73;;
71253;SDS011;59019;47.638;18.966;2022-12-18T16:24:01;85.40;;;29.20;;
71253;SDS011;59019;47.638;18.966;2022-12-18T16:26:27;68.32;;;25.48;;
71253;SDS011;59019;47.638;18.966;2022-12-18T16:28:52;48.13;;;18.83;;
71253;SDS011;59019;47.638;18.966;2022-12-18T16:31:18;68.20;;;23.23;;
71253;SDS011;59019;47.638;18.966;2022-12-18T16:33:44;81.95;;;25.30;;
71253;SDS011;59019;47.638;18.966;2022-12-18T16:36:10;55.50;;;19.43;;
71253;SDS011;59019;47.638;18.966;2022-12-18T16:38:35;98.28;;;30.42;;
71253;SDS011;59019;47.638;18.966;2022-12-18T16:41:01;148.55;;;43.65;;
71253;SDS011;59019;47.638;18.966;2022-12-18T16:43:45;52.23;;;19.90;;
71253;SDS011;59019;47.638;18.966;2022-12-18T16:46:10;45.42;;;17.45;;
71253;SDS011;59019;47.638;18.966;2022-12-18T16:48:36;45.63;;;15.73;;
71253;SDS011;59019;47.638;18.966;2022-12-18T16:51:02;53.10;;;18.67;;
71253;SDS011;59019;47.638;18.966;2022-12-18T16:53:29;61.65;;;20.65;;
71253;SDS011;59019;47.638;18.966;2022-12-18T16:55:56;56.55;;;18.73;;
71253;SDS011;59019;47.638;18.966;2022-12-18T16:58:22;51.07;;;17.90;;
71253;SDS011;59019;47.638;18.966;2022-12-18T17:00:47;50.97;;;17.53;;
71253;SDS011;59019;47.638;18.966;2022-12-18T17:03:13;42.60;;;15.57;;
71253;SDS011;59019;47.638;18.966;2022-12-18T17:05:38;42.03;;;15.00;;
71253;SDS011;59019;47.638;18.966;2022-12-18T17:08:04;38.13;;;14.13;;
71253;SDS011;59019;47.638;18.966;2022-12-18T17:10:30;41.85;;;15.35;;
71253;SDS011;59019;47.638;18.966;2022-12-18T17:12:56;43.58;;;16.35;;
71253;SDS011;59019;47.638;18.966;2022-12-18T17:15:21;62.33;;;23.60;;
71253;SDS011;59019;47.638;18.966;2022-12-18T17:17:47;73.73;;;25.83;;
71253;SDS011;59019;47.638;18.966;2022-12-18T17:20:13;67.33;;;26.83;;
71253;SDS011;59019;47.638;18.966;2022-12-18T17:22:38;73.18;;;28.05;;
71253;SDS011;59019;47.638;18.966;2022-12-18T17:25:04;67.93;;;29.03;;
71253;SDS011;59019;47.638;18.966;2022-12-18T17:27:29;106.43;;;38.60;;
71253;SDS011;59019;47.638;18.966;2022-12-18T17:29:55;68.85;;;24.55;;